Orange Springs, Florida
Current Conditions -  °F | °C
As of 8:53 AM on Friday 31 Oct 2014 (Local Time) from KGNV Reporting Station
Few Clouds Few Clouds  
Wind Chill: 56°   Ceiling: Unl
Heat Index: 56°   Visibility: 10mi
Dew Point: 53°   Wind: 3mph
Humidity: 90%   Direction: 290°WNW
Pressure: 29.9"   Gusts: NA
Location:  29.51°N, 81.95°W
Report Text: KGNV 311253Z 29003KT 10SM FEW005 13/12 A2990 RMK AO2 SLP123 T01330117
Loading
Personal Weather Stations






























Interactive Weather Map
Tropical Storm Tracking
New forecast layout! Learn more

10-Day Weather Forecast

Advertisements
Track Severe Weather on mobile